createdAt,value
2019-05-01T00:01:21.672Z,98680.27
2019-05-01T00:03:06.544Z,98684.48
2019-05-01T00:04:59.427Z,98676.41
2019-05-01T00:06:35.285Z,98684.04
2019-05-01T00:08:10.613Z,98681.44
2019-05-01T00:09:44.841Z,98676.89
2019-05-01T00:11:19.446Z,98670.91
2019-05-01T00:12:53.648Z,98674.24
2019-05-01T00:14:28.252Z,98673.98
2019-05-01T00:16:02.736Z,98674.36
2019-05-01T00:17:37.373Z,98684.99
2019-05-01T00:19:11.587Z,98684.44
2019-05-01T00:20:45.827Z,98683.89
2019-05-01T00:22:20.044Z,98679.09
2019-05-01T00:23:54.741Z,98682.42
2019-05-01T00:25:29.030Z,98687.00
2019-05-01T00:27:03.259Z,98678.64
2019-05-01T00:28:37.468Z,98681.38
2019-05-01T00:30:13.930Z,98674.94
2019-05-01T00:31:48.143Z,98674.38
2019-05-01T00:33:22.369Z,98678.01
2019-05-01T00:34:56.592Z,98684.38
2019-05-01T00:36:31.172Z,98682.75
2019-05-01T00:38:05.378Z,98681.38
2019-05-01T00:39:39.611Z,98686.48
2019-05-01T00:41:13.844Z,98688.22
2019-05-01T00:42:47.801Z,98687.52
2019-05-01T00:44:22.017Z,98682.27
2019-05-01T00:45:56.238Z,98675.91
2019-05-01T00:47:30.493Z,98668.92
2019-05-01T00:49:04.943Z,98676.00
2019-05-01T00:50:39.164Z,98670.13
2019-05-01T00:52:13.456Z,98667.19
2019-05-01T00:53:47.716Z,98670.98
2019-05-01T00:55:39.183Z,98671.43
2019-05-01T00:57:27.249Z,98658.47
2019-05-01T00:59:03.124Z,98654.19
2019-05-01T01:00:55.300Z,98662.73
2019-05-01T01:02:31.143Z,98660.41
2019-05-01T01:04:05.353Z,98651.69
2019-05-01T01:05:39.644Z,98647.61
2019-05-01T01:07:14.591Z,98654.92
2019-05-01T01:08:48.810Z,98666.33
2019-05-01T01:10:23.420Z,98658.30
2019-05-01T01:11:57.650Z,98640.73
2019-05-01T01:13:32.243Z,98639.08
2019-05-01T01:15:07.271Z,98643.87
2019-05-01T01:16:41.488Z,98650.34
2019-05-01T01:18:15.836Z,98650.70
2019-05-01T01:19:50.417Z,98628.64
2019-05-01T01:21:24.632Z,98636.92
2019-05-01T01:22:58.952Z,98648.61
2019-05-01T01:24:33.244Z,98644.34
2019-05-01T01:26:08.062Z,98642.67
2019-05-01T01:27:42.280Z,98645.88
2019-05-01T01:29:16.501Z,98653.40
2019-05-01T01:30:56.491Z,98649.83
2019-05-01T01:32:26.880Z,98648.42
2019-05-01T01:34:01.140Z,98641.08
2019-05-01T01:35:35.360Z,98644.31
2019-05-01T01:37:09.577Z,98639.91
2019-05-01T01:38:44.498Z,98640.66
2019-05-01T01:40:19.320Z,98641.38
2019-05-01T01:41:53.817Z,98634.67
2019-05-01T01:43:35.700Z,98631.19
2019-05-01T01:45:15.052Z,98637.05
2019-05-01T01:46:53.593Z,98639.16
2019-05-01T01:48:27.927Z,98634.16
2019-05-01T01:50:02.366Z,98630.64
2019-05-01T01:51:37.363Z,98625.07
2019-05-01T01:53:13.731Z,98624.00
2019-05-01T01:54:47.956Z,98616.88
2019-05-01T01:56:22.932Z,98622.98
2019-05-01T01:57:58.249Z,98630.55
2019-05-01T01:59:32.969Z,98627.29
2019-05-01T02:01:14.861Z,98632.24
2019-05-01T02:02:50.748Z,98623.83
2019-05-01T02:04:33.276Z,98617.92
2019-05-01T02:06:07.578Z,98615.70
2019-05-01T02:07:41.804Z,98615.56
2019-05-01T02:09:16.345Z,98614.84
2019-05-01T02:10:50.959Z,98609.53
2019-05-01T02:12:25.225Z,98600.16
2019-05-01T02:13:59.452Z,98613.50
2019-05-01T02:15:33.819Z,98613.42
2019-05-01T02:17:08.505Z,98615.88
2019-05-01T02:18:42.732Z,98623.32
2019-05-01T02:20:16.986Z,98616.54
2019-05-01T02:21:51.205Z,98616.28
2019-05-01T02:23:25.961Z,98612.33
2019-05-01T02:25:01.818Z,98606.88
2019-05-01T02:26:37.788Z,98609.55
2019-05-01T02:28:32.137Z,98621.37
2019-05-01T02:30:09.705Z,98619.87
2019-05-01T02:31:46.217Z,98611.50
2019-05-01T02:33:20.547Z,98624.66
2019-05-01T02:34:56.654Z,98620.93
2019-05-01T02:36:31.764Z,98611.94
2019-05-01T02:38:07.331Z,98614.21
2019-05-01T02:39:44.056Z,98603.74
2019-05-01T02:41:20.988Z,98610.28
2019-05-01T02:42:56.312Z,98608.56
2019-05-01T02:44:36.306Z,98606.52
2019-05-01T02:46:13.633Z,98613.63
2019-05-01T02:47:49.068Z,98604.48
2019-05-01T02:49:28.794Z,98609.38
2019-05-01T02:51:05.144Z,98614.02
2019-05-01T02:52:42.688Z,98614.31
2019-05-01T02:54:19.615Z,98603.09
2019-05-01T02:56:13.852Z,98616.05
2019-05-01T02:57:48.818Z,98622.59
2019-05-01T02:59:26.721Z,98608.26
2019-05-01T03:01:00.942Z,98610.62
2019-05-01T03:02:36.158Z,98612.81
2019-05-01T03:04:11.298Z,98609.07
2019-05-01T03:05:46.017Z,98607.98
2019-05-01T03:07:21.535Z,98612.31
2019-05-01T03:08:57.481Z,98610.45
2019-05-01T03:10:32.239Z,98608.81
2019-05-01T03:12:08.576Z,98613.56
2019-05-01T03:13:45.877Z,98609.33
2019-05-01T03:15:22.800Z,98614.75
2019-05-01T03:17:01.424Z,98619.28
2019-05-01T03:18:37.878Z,98625.80
2019-05-01T03:20:22.073Z,98620.15
2019-05-01T03:21:58.158Z,98621.05
2019-05-01T03:23:34.161Z,98626.93
2019-05-01T03:25:09.233Z,98622.33
2019-05-01T03:26:43.507Z,98627.77
2019-05-01T03:28:18.704Z,98631.61
2019-05-01T03:29:53.134Z,98632.78
2019-05-01T03:31:27.859Z,98632.19
2019-05-01T03:33:02.180Z,98631.31
2019-05-01T03:34:36.705Z,98631.11
2019-05-01T03:36:11.317Z,98627.75
2019-05-01T03:37:46.526Z,98628.86
2019-05-01T03:39:20.878Z,98630.49
2019-05-01T03:40:55.405Z,98626.12
2019-05-01T03:42:30.522Z,98629.27
2019-05-01T03:44:06.448Z,98629.95
2019-05-01T03:45:41.385Z,98626.09
2019-05-01T03:47:16.090Z,98628.69
2019-05-01T03:48:50.602Z,98626.00
2019-05-01T03:50:25.016Z,98632.45
2019-05-01T03:51:59.283Z,98640.47
2019-05-01T03:53:34.197Z,98632.42
2019-05-01T03:55:08.421Z,98632.93
2019-05-01T03:56:43.091Z,98633.36
2019-05-01T03:58:18.456Z,98631.38
2019-05-01T03:59:52.769Z,98632.21
2019-05-01T04:01:42.029Z,98637.19
2019-05-01T04:03:25.205Z,98646.67
2019-05-01T04:04:59.957Z,98640.86
2019-05-01T04:06:34.156Z,98640.62
2019-05-01T04:08:08.494Z,98633.65
2019-05-01T04:09:43.058Z,98635.22
2019-05-01T04:11:17.793Z,98635.83
2019-05-01T04:12:52.104Z,98638.66
2019-05-01T04:14:26.445Z,98639.56
2019-05-01T04:16:01.229Z,98641.78
2019-05-01T04:17:48.666Z,98634.58
2019-05-01T04:19:23.043Z,98628.12
2019-05-01T04:20:58.664Z,98623.34
2019-05-01T04:22:34.051Z,98619.84
2019-05-01T04:24:08.353Z,98620.77
2019-05-01T04:25:42.881Z,98620.17
2019-05-01T04:27:18.814Z,98625.48
2019-05-01T04:29:01.379Z,98622.05
2019-05-01T04:30:37.790Z,98624.45
2019-05-01T04:32:13.886Z,98622.86
2019-05-01T04:33:50.138Z,98626.27
2019-05-01T04:35:29.351Z,98623.70
2019-05-01T04:37:05.299Z,98622.58
2019-05-01T04:38:39.636Z,98626.09
2019-05-01T04:40:18.516Z,98630.95
2019-05-01T04:41:51.689Z,98628.19
2019-05-01T04:43:26.237Z,98625.00
2019-05-01T04:45:00.524Z,98623.34
2019-05-01T04:46:36.096Z,98621.76
2019-05-01T04:48:10.663Z,98624.97
2019-05-01T04:49:45.021Z,98628.54
2019-05-01T04:51:19.481Z,98628.83
2019-05-01T04:52:53.788Z,98637.14
2019-05-01T04:54:28.521Z,98630.32
2019-05-01T04:56:02.774Z,98637.22
2019-05-01T04:57:37.251Z,98633.58
2019-05-01T04:59:11.864Z,98639.82
2019-05-01T05:00:47.299Z,98635.87
2019-05-01T05:02:35.353Z,98631.78
2019-05-01T05:04:09.571Z,98630.72
2019-05-01T05:05:44.336Z,98632.14
2019-05-01T05:07:19.085Z,98623.28
2019-05-01T05:08:53.302Z,98626.34
2019-05-01T05:10:27.912Z,98618.34
2019-05-01T05:12:03.758Z,98614.72
2019-05-01T05:13:40.017Z,98616.42
2019-05-01T05:15:15.915Z,98612.18
2019-05-01T05:16:55.136Z,98618.03
2019-05-01T05:18:30.338Z,98614.63
2019-05-01T05:20:06.886Z,98616.16
2019-05-01T05:21:41.189Z,98625.12
2019-05-01T05:23:16.166Z,98621.69
2019-05-01T05:24:52.280Z,98615.82
2019-05-01T05:26:27.414Z,98613.47
2019-05-01T05:28:02.811Z,98606.78
2019-05-01T05:29:37.943Z,98606.64
2019-05-01T05:31:13.824Z,98605.30
2019-05-01T05:32:49.975Z,98608.20
2019-05-01T05:34:26.793Z,98609.88
2019-05-01T05:36:02.307Z,98604.79
2019-05-01T05:37:40.255Z,98605.38
2019-05-01T05:39:18.275Z,98599.17
2019-05-01T05:40:53.005Z,98601.41
2019-05-01T05:42:28.113Z,98600.73
2019-05-01T05:44:02.491Z,98597.27
2019-05-01T05:45:37.293Z,98602.75
2019-05-01T05:47:12.004Z,98601.63
2019-05-01T05:48:46.725Z,98600.95
2019-05-01T05:50:22.573Z,98598.97
2019-05-01T05:52:12.945Z,98596.14
2019-05-01T05:53:50.789Z,98596.69
2019-05-01T05:55:31.886Z,98591.14
2019-05-01T05:57:18.808Z,98593.43
2019-05-01T05:59:05.684Z,98601.83
2019-05-01T06:00:52.119Z,98598.65
2019-05-01T06:02:36.148Z,98594.68
2019-05-01T06:04:29.353Z,98602.45
2019-05-01T06:06:15.717Z,98597.36
2019-05-01T06:08:11.112Z,98598.05
2019-05-01T06:09:49.591Z,98604.69
2019-05-01T06:11:44.350Z,98599.39
2019-05-01T06:13:37.369Z,98596.77
2019-05-01T06:15:13.216Z,98600.58
2019-05-01T06:16:55.596Z,98536.44
2019-05-01T06:18:34.759Z,98583.59
2019-05-01T06:20:10.464Z,98594.95
2019-05-01T06:21:55.958Z,98597.56
2019-05-01T06:23:34.380Z,98590.45
2019-05-01T06:25:21.109Z,98590.52
2019-05-01T06:26:47.536Z,98593.59
2019-05-01T06:28:24.956Z,98591.80
2019-05-01T06:29:59.316Z,98595.65
2019-05-01T06:31:33.697Z,98595.72
2019-05-01T06:33:09.533Z,98596.34
2019-05-01T06:34:44.005Z,98599.64
2019-05-01T06:36:18.664Z,98595.97
2019-05-01T06:38:04.842Z,98592.23
2019-05-01T06:39:42.794Z,98587.41
2019-05-01T06:41:18.400Z,98586.49
2019-05-01T06:42:52.741Z,98586.67
2019-05-01T06:44:33.343Z,98593.61
2019-05-01T06:46:13.932Z,98598.27
2019-05-01T06:47:52.294Z,98602.55
2019-05-01T06:49:43.221Z,98600.13
2019-05-01T06:51:34.960Z,98596.09
2019-05-01T06:53:09.760Z,98596.00
2019-05-01T06:54:47.891Z,98594.77
2019-05-01T06:56:20.289Z,98588.78
2019-05-01T06:57:54.852Z,98583.84
2019-05-01T06:59:31.294Z,98589.05
2019-05-01T07:01:06.582Z,98598.09
2019-05-01T07:02:42.332Z,98586.33
2019-05-01T07:04:17.114Z,98588.14
2019-05-01T07:05:54.388Z,98589.40
2019-05-01T07:07:35.272Z,98584.55
2019-05-01T07:09:11.948Z,98587.80
2019-05-01T07:10:47.565Z,98585.25
2019-05-01T07:12:23.818Z,98582.89
2019-05-01T07:13:59.541Z,98577.03
2019-05-01T07:15:33.905Z,98582.76
2019-05-01T07:17:09.018Z,98577.02
2019-05-01T07:18:44.077Z,98578.31
2019-05-01T07:20:35.192Z,98573.29
2019-05-01T07:22:09.514Z,98569.10
2019-05-01T07:23:47.865Z,98571.56
2019-05-01T07:25:21.048Z,98574.32
2019-05-01T07:26:55.251Z,98567.10
2019-05-01T07:28:34.405Z,98564.39
2019-05-01T07:30:10.222Z,98570.52
2019-05-01T07:31:44.632Z,98574.35
2019-05-01T07:33:19.238Z,98566.24
2019-05-01T07:34:56.881Z,98567.73
2019-05-01T07:36:29.552Z,98571.88
2019-05-01T07:38:04.133Z,98572.37
2019-05-01T07:39:38.548Z,98574.94
2019-05-01T07:41:13.069Z,98573.77
2019-05-01T07:42:49.438Z,98567.75
2019-05-01T07:44:29.944Z,98564.53
2019-05-01T07:46:09.345Z,98565.33
2019-05-01T07:47:48.984Z,98561.71
2019-05-01T07:49:38.396Z,98559.73
2019-05-01T07:51:12.692Z,98557.84
2019-05-01T07:52:52.343Z,98555.27
2019-05-01T07:54:25.855Z,98551.16
2019-05-01T07:56:00.418Z,98556.45
2019-05-01T07:57:39.687Z,98551.83
2019-05-01T07:59:14.209Z,98551.27
2019-05-01T08:00:51.769Z,98551.52
2019-05-01T08:02:30.825Z,98544.35
2019-05-01T08:04:01.889Z,98545.20
2019-05-01T08:05:36.168Z,98543.44
2019-05-01T08:07:10.878Z,98540.88
2019-05-01T08:08:45.075Z,98530.29
2019-05-01T08:10:20.974Z,98538.89
2019-05-01T08:11:55.238Z,98533.71
2019-05-01T08:13:30.668Z,98529.37
2019-05-01T08:15:06.228Z,98528.36
2019-05-01T08:16:42.561Z,98528.72
2019-05-01T08:18:18.036Z,98524.22
2019-05-01T08:19:54.177Z,98521.66
2019-05-01T08:21:30.028Z,98529.08
2019-05-01T08:23:07.663Z,98524.67
2019-05-01T08:24:40.388Z,98527.77
2019-05-01T08:26:14.904Z,98522.08
2019-05-01T08:28:02.802Z,98527.03
2019-05-01T08:29:42.384Z,98529.33
2019-05-01T08:31:23.114Z,98529.98
2019-05-01T08:33:09.788Z,98528.46
2019-05-01T08:34:49.153Z,98523.23
2019-05-01T08:36:20.508Z,98520.30
2019-05-01T08:37:58.612Z,98511.58
2019-05-01T08:39:30.909Z,98521.08
2019-05-01T08:41:05.130Z,98519.82
2019-05-01T08:42:42.678Z,98511.61
2019-05-01T08:44:15.544Z,98509.30
2019-05-01T08:46:11.782Z,98509.81
2019-05-01T08:48:02.223Z,98510.73
2019-05-01T08:49:42.251Z,98505.88
2019-05-01T08:51:14.461Z,98505.49
2019-05-01T08:52:48.767Z,98506.92
2019-05-01T08:54:22.908Z,98496.95
2019-05-01T08:55:57.302Z,98491.82
2019-05-01T08:57:34.588Z,98501.20
2019-05-01T08:59:07.387Z,98493.80
2019-05-01T09:00:41.758Z,98495.62
2019-05-01T09:02:16.172Z,98494.10
2019-05-01T09:03:54.084Z,98497.00
2019-05-01T09:05:30.029Z,98491.28
2019-05-01T09:07:02.434Z,98493.52
2019-05-01T09:08:37.096Z,98497.79
2019-05-01T09:10:11.812Z,98491.04
2019-05-01T09:11:46.032Z,98488.92
2019-05-01T09:13:23.805Z,98487.19
2019-05-01T09:14:56.613Z,98493.02
2019-05-01T09:16:34.103Z,98491.19
2019-05-01T09:18:08.279Z,98493.80
2019-05-01T09:19:42.480Z,98484.70
2019-05-01T09:21:17.017Z,98483.61
2019-05-01T09:22:51.228Z,98484.92
2019-05-01T09:24:27.850Z,98475.72
2019-05-01T09:26:16.225Z,98484.78
2019-05-01T09:28:05.685Z,98480.50
2019-05-01T09:29:46.754Z,98483.35
2019-05-01T09:31:22.012Z,98478.20
2019-05-01T09:32:56.225Z,98475.54
2019-05-01T09:34:30.729Z,98484.22
2019-05-01T09:36:04.933Z,98475.95
2019-05-01T09:37:39.147Z,98480.02
2019-05-01T09:39:14.980Z,98476.09
2019-05-01T09:40:50.461Z,98468.31
2019-05-01T09:42:25.386Z,98459.92
2019-05-01T09:43:59.680Z,98477.70
2019-05-01T09:45:33.955Z,98479.53
2019-05-01T09:47:08.892Z,98474.59
2019-05-01T09:48:43.265Z,98473.36
2019-05-01T09:50:17.536Z,98477.78
2019-05-01T09:51:59.587Z,98466.43
2019-05-01T09:53:35.689Z,98477.01
2019-05-01T09:55:18.009Z,98482.59
2019-05-01T09:56:49.816Z,98478.25
2019-05-01T09:58:24.087Z,98479.45
2019-05-01T10:00:00.179Z,98468.28
2019-05-01T10:01:34.657Z,98474.89
2019-05-01T10:03:13.078Z,98469.03
2019-05-01T10:04:44.848Z,98470.27
2019-05-01T10:06:19.268Z,98466.14
2019-05-01T10:07:53.734Z,98464.48
2019-05-01T10:09:28.030Z,98464.77
2019-05-01T10:11:05.123Z,98464.97
2019-05-01T10:12:41.794Z,98469.16
2019-05-01T10:14:14.624Z,98475.64
2019-05-01T10:15:48.889Z,98468.90
2019-05-01T10:17:23.112Z,98469.72
2019-05-01T10:18:57.856Z,98467.79
2019-05-01T10:20:33.252Z,98473.91
2019-05-01T10:22:07.501Z,98472.14
2019-05-01T10:23:41.784Z,98469.53
2019-05-01T10:25:17.145Z,98463.66
2019-05-01T10:26:55.232Z,98465.13
2019-05-01T10:28:30.608Z,98453.97
2019-05-01T10:30:10.873Z,98464.23
2019-05-01T10:32:03.572Z,98462.88
2019-05-01T10:33:39.412Z,98462.40
2019-05-01T10:35:19.301Z,98461.95
2019-05-01T10:36:54.506Z,98462.83
2019-05-01T10:38:27.473Z,98467.17
2019-05-01T10:40:01.742Z,98456.52
2019-05-01T10:41:35.941Z,98461.75
2019-05-01T10:43:10.712Z,98462.94
2019-05-01T10:44:45.241Z,98467.20
2019-05-01T10:46:19.449Z,98457.52
2019-05-01T10:47:53.652Z,98461.26
2019-05-01T10:49:31.028Z,98458.05
2019-05-01T10:51:05.562Z,98465.11
2019-05-01T10:52:39.824Z,98469.63
2019-05-01T10:54:14.068Z,98466.47
2019-05-01T10:55:48.340Z,98460.28
2019-05-01T10:57:23.120Z,98467.27
2019-05-01T10:58:57.776Z,98461.64
2019-05-01T11:00:32.029Z,98463.20
2019-05-01T11:02:07.972Z,98463.97
2019-05-01T11:03:42.794Z,98464.62
2019-05-01T11:05:17.164Z,98462.20
2019-05-01T11:06:51.369Z,98458.94
2019-05-01T11:08:25.622Z,98463.66
2019-05-01T11:10:00.170Z,98464.10
2019-05-01T11:11:34.396Z,98453.27
2019-05-01T11:13:08.584Z,98456.28
2019-05-01T11:14:43.438Z,98458.75
2019-05-01T11:16:18.220Z,98460.86
2019-05-01T11:17:52.430Z,98456.99
2019-05-01T11:19:29.503Z,98445.49
2019-05-01T11:21:02.601Z,98451.36
2019-05-01T11:22:37.200Z,98449.78
2019-05-01T11:24:11.400Z,98452.45
2019-05-01T11:25:45.617Z,98453.63
2019-05-01T11:27:19.892Z,98450.87
2019-05-01T11:28:54.645Z,98459.77
2019-05-01T11:30:29.229Z,98453.38
2019-05-01T11:32:11.067Z,98450.70
2019-05-01T11:33:59.432Z,98454.06
2019-05-01T11:35:51.781Z,98448.25
2019-05-01T11:37:33.346Z,98458.47
2019-05-01T11:39:21.961Z,98464.47
2019-05-01T11:41:06.684Z,98458.73
2019-05-01T11:42:40.920Z,98464.56
2019-05-01T11:44:15.124Z,98470.44
2019-05-01T11:45:50.255Z,98460.80
2019-05-01T11:47:24.440Z,98469.55
2019-05-01T11:48:59.457Z,98467.73
2019-05-01T11:50:33.657Z,98467.69
2019-05-01T11:52:08.437Z,98469.51
2019-05-01T11:53:42.732Z,98469.48
2019-05-01T11:55:16.942Z,98471.57
2019-05-01T11:56:51.144Z,98463.30
2019-05-01T11:58:25.558Z,98475.42
2019-05-01T11:59:59.804Z,98475.34
2019-05-01T12:01:34.009Z,98473.61
2019-05-01T12:03:08.249Z,98466.63
2019-05-01T12:04:42.917Z,98470.13
2019-05-01T12:06:23.025Z,98465.83
2019-05-01T12:07:53.114Z,98469.83
2019-05-01T12:09:27.333Z,98474.29
2019-05-01T12:11:03.009Z,98465.64
2019-05-01T12:12:37.224Z,98460.78
2019-05-01T12:14:11.470Z,98460.61
2019-05-01T12:15:47.318Z,98462.16
2019-05-01T12:17:30.090Z,98455.77
2019-05-01T12:19:04.353Z,98451.49
2019-05-01T12:20:38.552Z,98449.39
2019-05-01T12:22:12.836Z,98458.69
2019-05-01T12:23:47.435Z,98460.87
2019-05-01T12:25:21.809Z,98450.62
2019-05-01T12:26:55.961Z,98445.91
2019-05-01T12:28:30.213Z,98444.77
2019-05-01T12:30:09.773Z,98443.80
2019-05-01T12:31:44.025Z,98439.24
2019-05-01T12:33:18.627Z,98444.09
2019-05-01T12:34:52.828Z,98439.53
2019-05-01T12:36:35.964Z,98434.84
2019-05-01T12:38:04.924Z,98436.36
2019-05-01T12:39:39.139Z,98443.12
2019-05-01T12:41:20.974Z,98435.12
2019-05-01T12:42:55.460Z,98442.76
2019-05-01T12:44:29.737Z,98442.27
2019-05-01T12:46:04.022Z,98444.78
2019-05-01T12:47:42.732Z,98442.88
2019-05-01T12:49:17.714Z,98447.66
2019-05-01T12:50:52.112Z,98448.59
2019-05-01T12:52:46.005Z,98450.77
2019-05-01T12:54:36.923Z,98451.77
2019-05-01T12:56:29.103Z,98451.37
2019-05-01T12:58:03.436Z,98449.72
2019-05-01T12:59:37.717Z,98443.12
2019-05-01T13:01:12.363Z,98448.92
2019-05-01T13:02:46.637Z,98452.44
2019-05-01T13:04:21.565Z,98444.23
2019-05-01T13:05:55.768Z,98444.33
2019-05-01T13:07:33.706Z,98449.56
2019-05-01T13:09:08.812Z,98436.48
2019-05-01T13:10:43.067Z,98434.55
2019-05-01T13:12:17.261Z,98435.23
2019-05-01T13:13:51.666Z,98427.89
2019-05-01T13:15:25.975Z,98425.13
2019-05-01T13:17:00.185Z,98433.08
2019-05-01T13:18:34.429Z,98433.39
2019-05-01T13:20:09.215Z,98428.25
2019-05-01T13:21:43.454Z,98427.84
2019-05-01T13:23:17.652Z,98431.83
2019-05-01T13:24:51.939Z,98430.70
2019-05-01T13:26:28.099Z,98431.06
2019-05-01T13:28:18.906Z,98435.74
2019-05-01T13:30:00.518Z,98436.44
2019-05-01T13:31:36.530Z,98426.62
2019-05-01T13:33:10.800Z,98429.88
2019-05-01T13:34:45.424Z,98441.44
2019-05-01T13:36:19.632Z,98435.52
2019-05-01T13:37:54.280Z,98428.80
2019-05-01T13:39:28.709Z,98435.45
2019-05-01T13:41:03.001Z,98437.97
2019-05-01T13:42:37.303Z,98440.45
2019-05-01T13:44:11.835Z,98434.14
2019-05-01T13:45:46.076Z,98438.47
2019-05-01T13:47:21.966Z,98445.25
2019-05-01T13:48:56.172Z,98439.71
2019-05-01T13:50:31.145Z,98444.58
2019-05-01T13:52:05.472Z,98445.41
2019-05-01T13:53:39.669Z,98446.77
2019-05-01T13:55:17.528Z,98456.64
2019-05-01T13:56:52.067Z,98456.53
2019-05-01T13:58:26.384Z,98420.95
2019-05-01T14:00:00.593Z,98450.94
2019-05-01T14:01:34.872Z,98451.03
2019-05-01T14:03:09.349Z,98456.81
2019-05-01T14:04:43.668Z,98455.66
2019-05-01T14:06:18.232Z,98457.95
2019-05-01T14:07:52.436Z,98461.89
2019-05-01T14:09:28.598Z,98458.64
2019-05-01T14:11:03.096Z,98462.66
2019-05-01T14:12:37.413Z,98461.11
2019-05-01T14:14:11.638Z,98464.45
2019-05-01T14:15:46.159Z,98464.79
2019-05-01T14:17:20.376Z,98466.17
2019-05-01T14:18:54.670Z,98467.03
2019-05-01T14:20:30.529Z,98465.47
2019-05-01T14:22:23.170Z,98469.41
2019-05-01T14:24:15.200Z,98458.12
2019-05-01T14:26:05.693Z,98463.13
2019-05-01T14:27:40.098Z,98459.02
2019-05-01T14:29:14.367Z,98468.48
2019-05-01T14:30:48.681Z,98467.44
2019-05-01T14:32:22.911Z,98468.59
2019-05-01T14:33:57.297Z,98465.92
2019-05-01T14:35:31.496Z,98465.16
2019-05-01T14:37:06.140Z,98465.92
2019-05-01T14:38:40.349Z,98458.45
2019-05-01T14:40:14.880Z,98461.47
2019-05-01T14:41:49.076Z,98461.49
2019-05-01T14:43:23.746Z,98458.61
2019-05-01T14:44:57.944Z,98459.62
2019-05-01T14:46:32.552Z,98456.08
2019-05-01T14:48:06.820Z,98456.67
2019-05-01T14:49:41.077Z,98455.86
2019-05-01T14:51:16.214Z,98463.22
2019-05-01T14:52:51.310Z,98467.73
2019-05-01T14:54:25.532Z,98466.92
2019-05-01T14:55:59.763Z,98473.91
2019-05-01T14:57:34.006Z,98468.41
2019-05-01T14:59:08.503Z,98471.38
2019-05-01T15:00:42.721Z,98468.63
2019-05-01T15:02:17.670Z,98468.75
2019-05-01T15:03:51.962Z,98467.03
2019-05-01T15:05:26.641Z,98464.38
2019-05-01T15:07:00.897Z,98465.27
2019-05-01T15:08:35.625Z,98469.13
2019-05-01T15:10:10.240Z,98467.61
2019-05-01T15:11:45.518Z,98472.54
2019-05-01T15:13:27.345Z,98469.73
2019-05-01T15:15:06.377Z,98470.45
2019-05-01T15:16:42.228Z,98468.48
2019-05-01T15:18:24.072Z,98462.60
2019-05-01T15:20:03.047Z,98465.07
2019-05-01T15:21:37.321Z,98464.41
2019-05-01T15:23:11.654Z,98466.31
2019-05-01T15:24:46.313Z,98462.97
2019-05-01T15:26:20.536Z,98467.23
2019-05-01T15:27:54.793Z,98469.45
2019-05-01T15:29:29.008Z,98469.50
2019-05-01T15:31:03.552Z,98470.03
2019-05-01T15:32:37.773Z,98463.06
2019-05-01T15:34:12.072Z,98472.56
2019-05-01T15:35:46.281Z,98464.42
2019-05-01T15:37:22.742Z,98470.56
2019-05-01T15:38:57.736Z,98469.95
2019-05-01T15:40:36.448Z,98466.48
2019-05-01T15:42:18.312Z,98469.89
2019-05-01T15:43:54.532Z,98473.86
2019-05-01T15:45:28.824Z,98478.55
2019-05-01T15:47:03.035Z,98475.08
2019-05-01T15:48:39.394Z,98471.41
2019-05-01T15:50:14.232Z,98478.80
2019-05-01T15:51:48.449Z,98475.08
2019-05-01T15:53:22.789Z,98478.12
2019-05-01T15:54:57.004Z,98478.19
2019-05-01T15:56:31.336Z,98481.07
2019-05-01T15:58:05.580Z,98478.91
2019-05-01T15:59:39.795Z,98480.23
2019-05-01T16:01:14.077Z,98475.80
2019-05-01T16:02:48.813Z,98477.52
2019-05-01T16:04:23.065Z,98482.17
2019-05-01T16:05:57.300Z,98475.36
2019-05-01T16:07:31.520Z,98480.56
2019-05-01T16:09:07.805Z,98477.34
2019-05-01T16:10:52.951Z,98481.11
2019-05-01T16:12:31.641Z,98482.67
2019-05-01T16:14:05.879Z,98488.23
2019-05-01T16:15:40.341Z,98481.07
2019-05-01T16:17:14.564Z,98490.57
2019-05-01T16:18:48.825Z,98491.48
2019-05-01T16:20:23.131Z,98495.35
2019-05-01T16:21:57.677Z,98494.84
2019-05-01T16:23:31.892Z,98499.66
2019-05-01T16:25:08.178Z,98500.74
2019-05-01T16:26:42.669Z,98500.45
2019-05-01T16:28:17.192Z,98502.06
2019-05-01T16:29:51.357Z,98501.61
2019-05-01T16:31:25.732Z,98502.42
2019-05-01T16:32:59.946Z,98507.25
2019-05-01T16:34:34.701Z,98505.88
2019-05-01T16:36:08.988Z,98511.70
2019-05-01T16:37:43.201Z,98511.86
2019-05-01T16:39:25.042Z,98506.91
2019-05-01T16:41:02.185Z,98514.06
2019-05-01T16:42:36.473Z,98510.38
2019-05-01T16:44:10.780Z,98510.38
2019-05-01T16:45:45.117Z,98519.66
2019-05-01T16:47:19.632Z,98516.06
2019-05-01T16:48:53.913Z,98514.00
2019-05-01T16:50:28.329Z,98515.59
2019-05-01T16:52:02.573Z,98519.10
2019-05-01T16:53:37.292Z,98521.53
2019-05-01T16:55:11.717Z,98525.36
2019-05-01T16:56:45.920Z,98530.13
2019-05-01T16:58:20.340Z,98528.25
2019-05-01T16:59:56.790Z,98531.70
2019-05-01T17:01:47.745Z,98545.44
2019-05-01T17:03:23.615Z,98544.75
2019-05-01T17:04:59.705Z,98535.77
2019-05-01T17:06:51.724Z,98539.51
2019-05-01T17:08:36.064Z,98543.92
2019-05-01T17:10:08.111Z,98549.03
2019-05-01T17:11:42.338Z,98549.22
2019-05-01T17:13:16.657Z,98550.39
2019-05-01T17:14:51.285Z,98550.31
2019-05-01T17:16:26.273Z,98548.96
2019-05-01T17:18:00.534Z,98551.45
2019-05-01T17:19:34.766Z,98557.14
2019-05-01T17:21:09.157Z,98551.28
2019-05-01T17:22:46.316Z,98559.30
2019-05-01T17:24:19.741Z,98555.22
2019-05-01T17:25:53.952Z,98553.94
2019-05-01T17:27:28.231Z,98564.45
2019-05-01T17:29:02.817Z,98564.62
2019-05-01T17:30:49.092Z,98562.23
2019-05-01T17:32:23.296Z,98563.38
2019-05-01T17:33:57.525Z,98563.47
2019-05-01T17:35:32.361Z,98568.57
2019-05-01T17:37:09.268Z,98569.09
2019-05-01T17:38:49.689Z,98568.00
2019-05-01T17:40:19.461Z,98575.80
2019-05-01T17:41:57.615Z,98579.34
2019-05-01T17:43:29.924Z,98577.84
2019-05-01T17:45:08.244Z,98583.02
2019-05-01T17:46:46.905Z,98587.31
2019-05-01T17:48:18.817Z,98586.80
2019-05-01T17:49:53.029Z,98588.23
2019-05-01T17:51:27.339Z,98583.22
2019-05-01T17:53:01.506Z,98592.08
2019-05-01T17:54:35.918Z,98587.79
2019-05-01T17:56:15.122Z,98591.95
2019-05-01T17:57:46.028Z,98591.93
2019-05-01T17:59:20.248Z,98599.72
2019-05-01T18:01:02.551Z,98599.87
2019-05-01T18:02:44.756Z,98601.05
2019-05-01T18:04:26.246Z,98599.34
2019-05-01T18:06:14.340Z,98602.48
2019-05-01T18:07:48.701Z,98603.47
2019-05-01T18:09:22.928Z,98606.14
2019-05-01T18:10:57.200Z,98610.46
2019-05-01T18:12:31.612Z,98614.51
2019-05-01T18:14:06.067Z,98606.40
2019-05-01T18:15:40.425Z,98615.69
2019-05-01T18:17:14.821Z,98610.09
2019-05-01T18:18:49.273Z,98622.73
2019-05-01T18:20:23.578Z,98622.72
2019-05-01T18:22:14.492Z,98621.06
2019-05-01T18:24:05.339Z,98628.36
2019-05-01T18:25:56.128Z,98630.72
2019-05-01T18:27:43.696Z,98634.25
2019-05-01T18:29:35.597Z,98635.83
2019-05-01T18:31:09.530Z,98636.97
2019-05-01T18:32:47.575Z,98643.00
2019-05-01T18:34:19.700Z,98638.91
2019-05-01T18:35:54.361Z,98646.49
2019-05-01T18:37:31.150Z,98648.69
2019-05-01T18:39:27.134Z,98644.84
2019-05-01T18:41:19.722Z,98649.74
2019-05-01T18:42:54.067Z,98651.37
2019-05-01T18:44:28.268Z,98653.25
2019-05-01T18:46:08.038Z,98655.51
2019-05-01T18:47:42.590Z,98654.57
2019-05-01T18:49:17.100Z,98661.28
2019-05-01T18:50:55.036Z,98662.14
2019-05-01T18:52:27.558Z,98656.50
2019-05-01T18:54:02.180Z,98665.84